<?xml version="1.0" encoding="UTF-8" standalone="no" ?>
<gpx xmlns="http://www.topografix.com/GPX/1/1" xmlns:xsi="http://www.w3.org/2001/XMLSchema-instance" xsi:schemaLocation="http://www.topografix.com/GPX/1/1 http://www.topografix.com/GPX/1/1/gpx.xsd" version="1.1" creator="VisuGPX - https://www.visugpx.com">
  <metadata>
    <name>RPM Gr 2 : LES GRÈS D'ANNOT</name>
    <desc><![CDATA[Gare SNCF – Les Auches – La Chambre du Roi – Les Grès d'Annot – Les Portettes – vers les Pierres Droites – Descente vers ravin de la Balme – A/R vers la cascade – retour à Annot par le Pont de Bourdou.]]></desc>
  </metadata>
  <trk>
    <name><![CDATA[RPM Gr 2 : LES GRÈS D'ANNOT]]></name>
    <desc><![CDATA[Gare SNCF - Les Auches - La Chambre du Roi - Les Grès d'Annot - Les Portettes - vers les Pierres Droites - Descente vers ravin de la Balme - A/R vers la cascade - retour à Annot par le Pont de Bourdou.]]></desc>
    <extensions>
      <line xmlns="http://www.topografix.com/GPX/gpx_style/0/2">
        <color>0000ff</color>
        <opacity>0.7</opacity>
        <width>6</width>
          <extensions>
            <sens>1</sens>
          </extensions>
      </line>
    </extensions>
    <trkseg>
      <trkpt lat="43.96417" lon="6.67193">
        <ele>705</ele>
        <time>2018-09-09T17:21:53+02:00</time>
      </trkpt>
      <trkpt lat="43.96493" lon="6.67156">
        <ele>703</ele>
        <time>2018-09-09T17:21:58+02:00</time>
      </trkpt>
      <trkpt lat="43.96519" lon="6.67154">
        <ele>704</ele>
        <time>2018-09-09T17:22:03+02:00</time>
      </trkpt>
      <trkpt lat="43.9653" lon="6.67197">
        <ele>713</ele>
        <time>2018-09-09T17:22:08+02:00</time>
      </trkpt>
      <trkpt lat="43.96457" lon="6.67242">
        <ele>716</ele>
        <time>2018-09-09T17:22:13+02:00</time>
      </trkpt>
      <trkpt lat="43.96362" lon="6.67309">
        <ele>719</ele>
        <time>2018-09-09T17:22:18+02:00</time>
      </trkpt>
      <trkpt lat="43.96274" lon="6.67373">
        <ele>718</ele>
        <time>2018-09-09T17:22:23+02:00</time>
      </trkpt>
      <trkpt lat="43.96238" lon="6.67405">
        <ele>720</ele>
        <time>2018-09-09T17:22:28+02:00</time>
      </trkpt>
      <trkpt lat="43.96215" lon="6.67408">
        <ele>717</ele>
        <time>2018-09-09T17:22:33+02:00</time>
      </trkpt>
      <trkpt lat="43.96221" lon="6.6742">
        <ele>722</ele>
        <time>2018-09-09T17:22:38+02:00</time>
      </trkpt>
      <trkpt lat="43.96209" lon="6.67444">
        <ele>728</ele>
        <time>2018-09-09T17:22:43+02:00</time>
      </trkpt>
      <trkpt lat="43.96238" lon="6.67455">
        <ele>737</ele>
        <time>2018-09-09T17:22:48+02:00</time>
      </trkpt>
      <trkpt lat="43.96227" lon="6.67485">
        <ele>745</ele>
        <time>2018-09-09T17:22:53+02:00</time>
      </trkpt>
      <trkpt lat="43.96269" lon="6.67526">
        <ele>766</ele>
        <time>2018-09-09T17:22:58+02:00</time>
      </trkpt>
      <trkpt lat="43.9623" lon="6.6756">
        <ele>769</ele>
        <time>2018-09-09T17:23:03+02:00</time>
      </trkpt>
      <trkpt lat="43.96213" lon="6.67579">
        <ele>770</ele>
        <time>2018-09-09T17:23:08+02:00</time>
      </trkpt>
      <trkpt lat="43.96207" lon="6.67611">
        <ele>779</ele>
        <time>2018-09-09T17:23:13+02:00</time>
      </trkpt>
      <trkpt lat="43.96206" lon="6.67646">
        <ele>789</ele>
        <time>2018-09-09T17:23:18+02:00</time>
      </trkpt>
      <trkpt lat="43.96223" lon="6.67646">
        <ele>793</ele>
        <time>2018-09-09T17:23:23+02:00</time>
      </trkpt>
      <trkpt lat="43.96221" lon="6.67689">
        <ele>807</ele>
        <time>2018-09-09T17:23:28+02:00</time>
      </trkpt>
      <trkpt lat="43.96164" lon="6.67841">
        <ele>836</ele>
        <time>2018-09-09T17:23:33+02:00</time>
      </trkpt>
      <trkpt lat="43.96159" lon="6.67871">
        <ele>847</ele>
        <time>2018-09-09T17:23:38+02:00</time>
      </trkpt>
      <trkpt lat="43.96102" lon="6.67927">
        <ele>845</ele>
        <time>2018-09-09T17:23:43+02:00</time>
      </trkpt>
      <trkpt lat="43.9609" lon="6.67931">
        <ele>841</ele>
        <time>2018-09-09T17:23:48+02:00</time>
      </trkpt>
      <trkpt lat="43.96062" lon="6.67995">
        <ele>857</ele>
        <time>2018-09-09T17:23:53+02:00</time>
      </trkpt>
      <trkpt lat="43.96084" lon="6.67989">
        <ele>864</ele>
        <time>2018-09-09T17:23:58+02:00</time>
      </trkpt>
      <trkpt lat="43.96093" lon="6.68004">
        <ele>877</ele>
        <time>2018-09-09T17:24:03+02:00</time>
      </trkpt>
      <trkpt lat="43.96124" lon="6.68004">
        <ele>894</ele>
        <time>2018-09-09T17:24:08+02:00</time>
      </trkpt>
      <trkpt lat="43.96153" lon="6.6797">
        <ele>891</ele>
        <time>2018-09-09T17:24:13+02:00</time>
      </trkpt>
      <trkpt lat="43.96213" lon="6.67968">
        <ele>915</ele>
        <time>2018-09-09T17:24:18+02:00</time>
      </trkpt>
      <trkpt lat="43.96207" lon="6.68013">
        <ele>937</ele>
        <time>2018-09-09T17:24:23+02:00</time>
      </trkpt>
      <trkpt lat="43.96184" lon="6.68032">
        <ele>940</ele>
        <time>2018-09-09T17:24:28+02:00</time>
      </trkpt>
      <trkpt lat="43.96165" lon="6.68013">
        <ele>921</ele>
        <time>2018-09-09T17:24:33+02:00</time>
      </trkpt>
      <trkpt lat="43.96122" lon="6.68043">
        <ele>920</ele>
        <time>2018-09-09T17:24:38+02:00</time>
      </trkpt>
      <trkpt lat="43.9609" lon="6.68043">
        <ele>904</ele>
        <time>2018-09-09T17:24:43+02:00</time>
      </trkpt>
      <trkpt lat="43.96017" lon="6.68098">
        <ele>883</ele>
        <time>2018-09-09T17:24:48+02:00</time>
      </trkpt>
      <trkpt lat="43.96002" lon="6.68128">
        <ele>885</ele>
        <time>2018-09-09T17:24:53+02:00</time>
      </trkpt>
      <trkpt lat="43.95996" lon="6.68171">
        <ele>899</ele>
        <time>2018-09-09T17:24:58+02:00</time>
      </trkpt>
      <trkpt lat="43.95968" lon="6.68216">
        <ele>884</ele>
        <time>2018-09-09T17:25:03+02:00</time>
      </trkpt>
      <trkpt lat="43.95979" lon="6.68347">
        <ele>950</ele>
        <time>2018-09-09T17:25:08+02:00</time>
      </trkpt>
      <trkpt lat="43.95985" lon="6.68373">
        <ele>937</ele>
        <time>2018-09-09T17:25:13+02:00</time>
      </trkpt>
      <trkpt lat="43.96037" lon="6.68427">
        <ele>953</ele>
        <time>2018-09-09T17:25:18+02:00</time>
      </trkpt>
      <trkpt lat="43.96116" lon="6.68474">
        <ele>985</ele>
        <time>2018-09-09T17:25:23+02:00</time>
      </trkpt>
      <trkpt lat="43.96153" lon="6.68463">
        <ele>1002</ele>
        <time>2018-09-09T17:25:28+02:00</time>
      </trkpt>
      <trkpt lat="43.9624" lon="6.6841">
        <ele>1011</ele>
        <time>2018-09-09T17:25:33+02:00</time>
      </trkpt>
      <trkpt lat="43.96314" lon="6.68365">
        <ele>1017</ele>
        <time>2018-09-09T17:25:38+02:00</time>
      </trkpt>
      <trkpt lat="43.96349" lon="6.68294">
        <ele>1023</ele>
        <time>2018-09-09T17:25:43+02:00</time>
      </trkpt>
      <trkpt lat="43.96357" lon="6.68251">
        <ele>1025</ele>
        <time>2018-09-09T17:25:48+02:00</time>
      </trkpt>
      <trkpt lat="43.96349" lon="6.68199">
        <ele>1025</ele>
        <time>2018-09-09T17:25:53+02:00</time>
      </trkpt>
      <trkpt lat="43.96374" lon="6.6815">
        <ele>1026</ele>
        <time>2018-09-09T17:25:58+02:00</time>
      </trkpt>
      <trkpt lat="43.96394" lon="6.68139">
        <ele>1028</ele>
        <time>2018-09-09T17:26:03+02:00</time>
      </trkpt>
      <trkpt lat="43.96408" lon="6.68133">
        <ele>1030</ele>
        <time>2018-09-09T17:26:08+02:00</time>
      </trkpt>
      <trkpt lat="43.96491" lon="6.68133">
        <ele>1045</ele>
        <time>2018-09-09T17:26:13+02:00</time>
      </trkpt>
      <trkpt lat="43.96539" lon="6.68148">
        <ele>1057</ele>
        <time>2018-09-09T17:26:18+02:00</time>
      </trkpt>
      <trkpt lat="43.96632" lon="6.68204">
        <ele>1077</ele>
        <time>2018-09-09T17:26:23+02:00</time>
      </trkpt>
      <trkpt lat="43.96678" lon="6.68266">
        <ele>1082</ele>
        <time>2018-09-09T17:26:28+02:00</time>
      </trkpt>
      <trkpt lat="43.9672" lon="6.68277">
        <ele>1090</ele>
        <time>2018-09-09T17:26:33+02:00</time>
      </trkpt>
      <trkpt lat="43.96811" lon="6.68292">
        <ele>1099</ele>
        <time>2018-09-09T17:26:38+02:00</time>
      </trkpt>
      <trkpt lat="43.96905" lon="6.68255">
        <ele>1116</ele>
        <time>2018-09-09T17:26:43+02:00</time>
      </trkpt>
      <trkpt lat="43.96973" lon="6.68255">
        <ele>1118</ele>
        <time>2018-09-09T17:26:48+02:00</time>
      </trkpt>
      <trkpt lat="43.96999" lon="6.68244">
        <ele>1122</ele>
        <time>2018-09-09T17:26:53+02:00</time>
      </trkpt>
      <trkpt lat="43.97035" lon="6.68249">
        <ele>1119</ele>
        <time>2018-09-09T17:26:58+02:00</time>
      </trkpt>
      <trkpt lat="43.97075" lon="6.68238">
        <ele>1118</ele>
        <time>2018-09-09T17:27:03+02:00</time>
      </trkpt>
      <trkpt lat="43.97233" lon="6.68264">
        <ele>1116</ele>
        <time>2018-09-09T17:27:08+02:00</time>
      </trkpt>
      <trkpt lat="43.97256" lon="6.68283">
        <ele>1115</ele>
        <time>2018-09-09T17:27:13+02:00</time>
      </trkpt>
      <trkpt lat="43.97297" lon="6.68283">
        <ele>1117</ele>
        <time>2018-09-09T17:27:18+02:00</time>
      </trkpt>
      <trkpt lat="43.9733" lon="6.683">
        <ele>1119</ele>
        <time>2018-09-09T17:27:23+02:00</time>
      </trkpt>
      <trkpt lat="43.97404" lon="6.68315">
        <ele>1120</ele>
        <time>2018-09-09T17:27:28+02:00</time>
      </trkpt>
      <trkpt lat="43.97429" lon="6.68311">
        <ele>1120</ele>
        <time>2018-09-09T17:27:33+02:00</time>
      </trkpt>
      <trkpt lat="43.97464" lon="6.68337">
        <ele>1117</ele>
        <time>2018-09-09T17:27:38+02:00</time>
      </trkpt>
      <trkpt lat="43.97487" lon="6.6833">
        <ele>1118</ele>
        <time>2018-09-09T17:27:43+02:00</time>
      </trkpt>
      <trkpt lat="43.9758" lon="6.68377">
        <ele>1120</ele>
        <time>2018-09-09T17:27:48+02:00</time>
      </trkpt>
      <trkpt lat="43.97617" lon="6.68386">
        <ele>1128</ele>
        <time>2018-09-09T17:27:53+02:00</time>
      </trkpt>
      <trkpt lat="43.97761" lon="6.68337">
        <ele>1150</ele>
        <time>2018-09-09T17:27:58+02:00</time>
      </trkpt>
      <trkpt lat="43.97789" lon="6.6836">
        <ele>1149</ele>
        <time>2018-09-09T17:28:03+02:00</time>
      </trkpt>
      <trkpt lat="43.97819" lon="6.6836">
        <ele>1152</ele>
        <time>2018-09-09T17:28:08+02:00</time>
      </trkpt>
      <trkpt lat="43.97867" lon="6.6838">
        <ele>1155</ele>
        <time>2018-09-09T17:28:13+02:00</time>
      </trkpt>
      <trkpt lat="43.97923" lon="6.68388">
        <ele>1161</ele>
        <time>2018-09-09T17:28:18+02:00</time>
      </trkpt>
      <trkpt lat="43.97968" lon="6.68468">
        <ele>1158</ele>
        <time>2018-09-09T17:28:23+02:00</time>
      </trkpt>
      <trkpt lat="43.97985" lon="6.68478">
        <ele>1162</ele>
        <time>2018-09-09T17:28:28+02:00</time>
      </trkpt>
      <trkpt lat="43.98006" lon="6.68508">
        <ele>1166</ele>
        <time>2018-09-09T17:28:33+02:00</time>
      </trkpt>
      <trkpt lat="43.98082" lon="6.6851">
        <ele>1166</ele>
        <time>2018-09-09T17:28:38+02:00</time>
      </trkpt>
      <trkpt lat="43.98176" lon="6.68487">
        <ele>1172</ele>
        <time>2018-09-09T17:28:43+02:00</time>
      </trkpt>
      <trkpt lat="43.98171" lon="6.68465">
        <ele>1169</ele>
        <time>2018-09-09T17:28:48+02:00</time>
      </trkpt>
      <trkpt lat="43.98147" lon="6.68437">
        <ele>1163</ele>
        <time>2018-09-09T17:28:53+02:00</time>
      </trkpt>
      <trkpt lat="43.98136" lon="6.68397">
        <ele>1156</ele>
        <time>2018-09-09T17:28:58+02:00</time>
      </trkpt>
      <trkpt lat="43.98136" lon="6.68373">
        <ele>1152</ele>
        <time>2018-09-09T17:29:03+02:00</time>
      </trkpt>
      <trkpt lat="43.98164" lon="6.68277">
        <ele>1142</ele>
        <time>2018-09-09T17:29:08+02:00</time>
      </trkpt>
      <trkpt lat="43.98224" lon="6.68214">
        <ele>1147</ele>
        <time>2018-09-09T17:29:13+02:00</time>
      </trkpt>
      <trkpt lat="43.98249" lon="6.68189">
        <ele>1150</ele>
        <time>2018-09-09T17:29:18+02:00</time>
      </trkpt>
      <trkpt lat="43.98256" lon="6.68128">
        <ele>1149</ele>
        <time>2018-09-09T17:29:23+02:00</time>
      </trkpt>
      <trkpt lat="43.98256" lon="6.68111">
        <ele>1149</ele>
        <time>2018-09-09T17:29:28+02:00</time>
      </trkpt>
      <trkpt lat="43.98306" lon="6.68041">
        <ele>1159</ele>
        <time>2018-09-09T17:29:33+02:00</time>
      </trkpt>
      <trkpt lat="43.98329" lon="6.67985">
        <ele>1159</ele>
        <time>2018-09-09T17:29:38+02:00</time>
      </trkpt>
      <trkpt lat="43.9838" lon="6.67901">
        <ele>1158</ele>
        <time>2018-09-09T17:29:43+02:00</time>
      </trkpt>
      <trkpt lat="43.98437" lon="6.6789">
        <ele>1167</ele>
        <time>2018-09-09T17:29:48+02:00</time>
      </trkpt>
      <trkpt lat="43.98519" lon="6.67933">
        <ele>1188</ele>
        <time>2018-09-09T17:29:53+02:00</time>
      </trkpt>
      <trkpt lat="43.98533" lon="6.67931">
        <ele>1191</ele>
        <time>2018-09-09T17:29:58+02:00</time>
      </trkpt>
      <trkpt lat="43.98562" lon="6.67856">
        <ele>1192</ele>
        <time>2018-09-09T17:30:03+02:00</time>
      </trkpt>
      <trkpt lat="43.98536" lon="6.67835">
        <ele>1182</ele>
        <time>2018-09-09T17:30:08+02:00</time>
      </trkpt>
      <trkpt lat="43.98539" lon="6.67762">
        <ele>1181</ele>
        <time>2018-09-09T17:30:13+02:00</time>
      </trkpt>
      <trkpt lat="43.98508" lon="6.67723">
        <ele>1174</ele>
        <time>2018-09-09T17:30:18+02:00</time>
      </trkpt>
      <trkpt lat="43.985" lon="6.67674">
        <ele>1177</ele>
        <time>2018-09-09T17:30:23+02:00</time>
      </trkpt>
      <trkpt lat="43.98469" lon="6.67665">
        <ele>1172</ele>
        <time>2018-09-09T17:30:28+02:00</time>
      </trkpt>
      <trkpt lat="43.98437" lon="6.67682">
        <ele>1162</ele>
        <time>2018-09-09T17:30:33+02:00</time>
      </trkpt>
      <trkpt lat="43.98402" lon="6.67669">
        <ele>1158</ele>
        <time>2018-09-09T17:30:38+02:00</time>
      </trkpt>
      <trkpt lat="43.98369" lon="6.67678">
        <ele>1149</ele>
        <time>2018-09-09T17:30:43+02:00</time>
      </trkpt>
      <trkpt lat="43.984" lon="6.67704">
        <ele>1148</ele>
        <time>2018-09-09T17:30:48+02:00</time>
      </trkpt>
      <trkpt lat="43.98292" lon="6.67716">
        <ele>1123</ele>
        <time>2018-09-09T17:30:53+02:00</time>
      </trkpt>
      <trkpt lat="43.98272" lon="6.67716">
        <ele>1118</ele>
        <time>2018-09-09T17:30:58+02:00</time>
      </trkpt>
      <trkpt lat="43.98171" lon="6.67789">
        <ele>1093</ele>
        <time>2018-09-09T17:31:03+02:00</time>
      </trkpt>
      <trkpt lat="43.98156" lon="6.67789">
        <ele>1091</ele>
        <time>2018-09-09T17:31:08+02:00</time>
      </trkpt>
      <trkpt lat="43.98091" lon="6.67875">
        <ele>1062</ele>
        <time>2018-09-09T17:31:13+02:00</time>
      </trkpt>
      <trkpt lat="43.98053" lon="6.67854">
        <ele>1055</ele>
        <time>2018-09-09T17:31:18+02:00</time>
      </trkpt>
      <trkpt lat="43.98046" lon="6.67854">
        <ele>1054</ele>
        <time>2018-09-09T17:31:23+02:00</time>
      </trkpt>
      <trkpt lat="43.9802" lon="6.6785">
        <ele>1047</ele>
        <time>2018-09-09T17:31:28+02:00</time>
      </trkpt>
      <trkpt lat="43.98016" lon="6.67843">
        <ele>1045</ele>
        <time>2018-09-09T17:31:33+02:00</time>
      </trkpt>
      <trkpt lat="43.9796" lon="6.67794">
        <ele>1038</ele>
        <time>2018-09-09T17:31:38+02:00</time>
      </trkpt>
      <trkpt lat="43.97938" lon="6.67783">
        <ele>1033</ele>
        <time>2018-09-09T17:31:43+02:00</time>
      </trkpt>
      <trkpt lat="43.979" lon="6.67712">
        <ele>1018</ele>
        <time>2018-09-09T17:31:48+02:00</time>
      </trkpt>
      <trkpt lat="43.97898" lon="6.67609">
        <ele>1003</ele>
        <time>2018-09-09T17:31:53+02:00</time>
      </trkpt>
      <trkpt lat="43.97877" lon="6.67571">
        <ele>990</ele>
        <time>2018-09-09T17:31:58+02:00</time>
      </trkpt>
      <trkpt lat="43.97853" lon="6.67573">
        <ele>983</ele>
        <time>2018-09-09T17:32:03+02:00</time>
      </trkpt>
      <trkpt lat="43.9783" lon="6.6753">
        <ele>964</ele>
        <time>2018-09-09T17:32:08+02:00</time>
      </trkpt>
      <trkpt lat="43.97801" lon="6.67493">
        <ele>952</ele>
        <time>2018-09-09T17:32:13+02:00</time>
      </trkpt>
      <trkpt lat="43.97765" lon="6.6745">
        <ele>936</ele>
        <time>2018-09-09T17:32:18+02:00</time>
      </trkpt>
      <trkpt lat="43.97751" lon="6.6742">
        <ele>923</ele>
        <time>2018-09-09T17:32:23+02:00</time>
      </trkpt>
      <trkpt lat="43.97764" lon="6.6739">
        <ele>916</ele>
        <time>2018-09-09T17:32:28+02:00</time>
      </trkpt>
      <trkpt lat="43.97731" lon="6.67371">
        <ele>905</ele>
        <time>2018-09-09T17:32:33+02:00</time>
      </trkpt>
      <trkpt lat="43.97721" lon="6.67326">
        <ele>885</ele>
        <time>2018-09-09T17:32:38+02:00</time>
      </trkpt>
      <trkpt lat="43.97711" lon="6.67317">
        <ele>881</ele>
        <time>2018-09-09T17:32:43+02:00</time>
      </trkpt>
      <trkpt lat="43.97697" lon="6.67317">
        <ele>878</ele>
        <time>2018-09-09T17:32:48+02:00</time>
      </trkpt>
      <trkpt lat="43.97685" lon="6.67298">
        <ele>868</ele>
        <time>2018-09-09T17:32:53+02:00</time>
      </trkpt>
      <trkpt lat="43.97646" lon="6.67292">
        <ele>859</ele>
        <time>2018-09-09T17:32:58+02:00</time>
      </trkpt>
      <trkpt lat="43.97646" lon="6.67279">
        <ele>853</ele>
        <time>2018-09-09T17:33:03+02:00</time>
      </trkpt>
      <trkpt lat="43.97682" lon="6.67257">
        <ele>850</ele>
        <time>2018-09-09T17:33:08+02:00</time>
      </trkpt>
      <trkpt lat="43.9773" lon="6.67274">
        <ele>869</ele>
        <time>2018-09-09T17:33:13+02:00</time>
      </trkpt>
      <trkpt lat="43.97764" lon="6.67227">
        <ele>874</ele>
        <time>2018-09-09T17:33:18+02:00</time>
      </trkpt>
      <trkpt lat="43.97819" lon="6.67206">
        <ele>891</ele>
        <time>2018-09-09T17:33:23+02:00</time>
      </trkpt>
      <trkpt lat="43.97863" lon="6.67182">
        <ele>897</ele>
        <time>2018-09-09T17:33:28+02:00</time>
      </trkpt>
      <trkpt lat="43.97894" lon="6.67137">
        <ele>899</ele>
        <time>2018-09-09T17:33:33+02:00</time>
      </trkpt>
      <trkpt lat="43.97917" lon="6.67053">
        <ele>897</ele>
        <time>2018-09-09T17:33:38+02:00</time>
      </trkpt>
      <trkpt lat="43.97934" lon="6.67021">
        <ele>908</ele>
        <time>2018-09-09T17:33:43+02:00</time>
      </trkpt>
      <trkpt lat="43.9796" lon="6.66987">
        <ele>917</ele>
        <time>2018-09-09T17:33:48+02:00</time>
      </trkpt>
      <trkpt lat="43.98003" lon="6.66961">
        <ele>923</ele>
        <time>2018-09-09T17:33:53+02:00</time>
      </trkpt>
      <trkpt lat="43.9806" lon="6.66878">
        <ele>939</ele>
        <time>2018-09-09T17:33:58+02:00</time>
      </trkpt>
      <trkpt lat="43.9808" lon="6.6685">
        <ele>935</ele>
        <time>2018-09-09T17:34:03+02:00</time>
      </trkpt>
      <trkpt lat="43.98124" lon="6.66807">
        <ele>940</ele>
        <time>2018-09-09T17:34:08+02:00</time>
      </trkpt>
      <trkpt lat="43.98054" lon="6.66888">
        <ele>938</ele>
        <time>2018-09-09T17:34:13+02:00</time>
      </trkpt>
      <trkpt lat="43.98002" lon="6.66963">
        <ele>922</ele>
        <time>2018-09-09T17:34:18+02:00</time>
      </trkpt>
      <trkpt lat="43.97957" lon="6.67008">
        <ele>914</ele>
        <time>2018-09-09T17:34:23+02:00</time>
      </trkpt>
      <trkpt lat="43.97923" lon="6.67051">
        <ele>900</ele>
        <time>2018-09-09T17:34:28+02:00</time>
      </trkpt>
      <trkpt lat="43.97895" lon="6.67139">
        <ele>899</ele>
        <time>2018-09-09T17:34:33+02:00</time>
      </trkpt>
      <trkpt lat="43.9787" lon="6.67178">
        <ele>897</ele>
        <time>2018-09-09T17:34:38+02:00</time>
      </trkpt>
      <trkpt lat="43.97819" lon="6.67206">
        <ele>891</ele>
        <time>2018-09-09T17:34:43+02:00</time>
      </trkpt>
      <trkpt lat="43.97761" lon="6.67223">
        <ele>874</ele>
        <time>2018-09-09T17:34:48+02:00</time>
      </trkpt>
      <trkpt lat="43.97727" lon="6.67264">
        <ele>865</ele>
        <time>2018-09-09T17:34:53+02:00</time>
      </trkpt>
      <trkpt lat="43.97671" lon="6.67257">
        <ele>847</ele>
        <time>2018-09-09T17:34:58+02:00</time>
      </trkpt>
      <trkpt lat="43.97601" lon="6.67238">
        <ele>829</ele>
        <time>2018-09-09T17:35:03+02:00</time>
      </trkpt>
      <trkpt lat="43.97544" lon="6.67219">
        <ele>818</ele>
        <time>2018-09-09T17:35:08+02:00</time>
      </trkpt>
      <trkpt lat="43.97522" lon="6.67212">
        <ele>814</ele>
        <time>2018-09-09T17:35:13+02:00</time>
      </trkpt>
      <trkpt lat="43.97505" lon="6.67169">
        <ele>793</ele>
        <time>2018-09-09T17:35:18+02:00</time>
      </trkpt>
      <trkpt lat="43.97475" lon="6.67167">
        <ele>789</ele>
        <time>2018-09-09T17:35:23+02:00</time>
      </trkpt>
      <trkpt lat="43.97459" lon="6.67167">
        <ele>787</ele>
        <time>2018-09-09T17:35:28+02:00</time>
      </trkpt>
      <trkpt lat="43.97404" lon="6.67141">
        <ele>780</ele>
        <time>2018-09-09T17:35:33+02:00</time>
      </trkpt>
      <trkpt lat="43.97331" lon="6.67073">
        <ele>764</ele>
        <time>2018-09-09T17:35:38+02:00</time>
      </trkpt>
      <trkpt lat="43.9732" lon="6.6706">
        <ele>765</ele>
        <time>2018-09-09T17:35:43+02:00</time>
      </trkpt>
      <trkpt lat="43.97336" lon="6.67">
        <ele>776</ele>
        <time>2018-09-09T17:35:48+02:00</time>
      </trkpt>
      <trkpt lat="43.97217" lon="6.66987">
        <ele>749</ele>
        <time>2018-09-09T17:35:53+02:00</time>
      </trkpt>
      <trkpt lat="43.97167" lon="6.66968">
        <ele>744</ele>
        <time>2018-09-09T17:35:58+02:00</time>
      </trkpt>
      <trkpt lat="43.97127" lon="6.66959">
        <ele>736</ele>
        <time>2018-09-09T17:36:03+02:00</time>
      </trkpt>
      <trkpt lat="43.97072" lon="6.6689">
        <ele>731</ele>
        <time>2018-09-09T17:36:08+02:00</time>
      </trkpt>
      <trkpt lat="43.97047" lon="6.66873">
        <ele>729</ele>
        <time>2018-09-09T17:36:13+02:00</time>
      </trkpt>
      <trkpt lat="43.96987" lon="6.66854">
        <ele>719</ele>
        <time>2018-09-09T17:36:18+02:00</time>
      </trkpt>
      <trkpt lat="43.96967" lon="6.66835">
        <ele>717</ele>
        <time>2018-09-09T17:36:23+02:00</time>
      </trkpt>
      <trkpt lat="43.96888" lon="6.66822">
        <ele>707</ele>
        <time>2018-09-09T17:36:28+02:00</time>
      </trkpt>
      <trkpt lat="43.96857" lon="6.66794">
        <ele>706</ele>
        <time>2018-09-09T17:36:33+02:00</time>
      </trkpt>
      <trkpt lat="43.96837" lon="6.6679">
        <ele>704</ele>
        <time>2018-09-09T17:36:38+02:00</time>
      </trkpt>
      <trkpt lat="43.96817" lon="6.66654">
        <ele>704</ele>
        <time>2018-09-09T17:36:43+02:00</time>
      </trkpt>
      <trkpt lat="43.96755" lon="6.66676">
        <ele>702</ele>
        <time>2018-09-09T17:36:48+02:00</time>
      </trkpt>
      <trkpt lat="43.96704" lon="6.66736">
        <ele>702</ele>
        <time>2018-09-09T17:36:53+02:00</time>
      </trkpt>
      <trkpt lat="43.96678" lon="6.66736">
        <ele>700</ele>
        <time>2018-09-09T17:36:58+02:00</time>
      </trkpt>
      <trkpt lat="43.96644" lon="6.66717">
        <ele>697</ele>
        <time>2018-09-09T17:37:03+02:00</time>
      </trkpt>
      <trkpt lat="43.96596" lon="6.66749">
        <ele>693</ele>
        <time>2018-09-09T17:37:08+02:00</time>
      </trkpt>
      <trkpt lat="43.96614" lon="6.66783">
        <ele>694</ele>
        <time>2018-09-09T17:37:13+02:00</time>
      </trkpt>
      <trkpt lat="43.96614" lon="6.6682">
        <ele>693</ele>
        <time>2018-09-09T17:37:18+02:00</time>
      </trkpt>
      <trkpt lat="43.96559" lon="6.66832">
        <ele>690</ele>
        <time>2018-09-09T17:37:23+02:00</time>
      </trkpt>
      <trkpt lat="43.96542" lon="6.66865">
        <ele>690</ele>
        <time>2018-09-09T17:37:28+02:00</time>
      </trkpt>
      <trkpt lat="43.96548" lon="6.66918">
        <ele>691</ele>
        <time>2018-09-09T17:37:33+02:00</time>
      </trkpt>
      <trkpt lat="43.96536" lon="6.66955">
        <ele>692</ele>
        <time>2018-09-09T17:37:38+02:00</time>
      </trkpt>
      <trkpt lat="43.96537" lon="6.67017">
        <ele>694</ele>
        <time>2018-09-09T17:37:43+02:00</time>
      </trkpt>
      <trkpt lat="43.96516" lon="6.67081">
        <ele>695</ele>
        <time>2018-09-09T17:37:48+02:00</time>
      </trkpt>
      <trkpt lat="43.96514" lon="6.67156">
        <ele>704</ele>
        <time>2018-09-09T17:37:53+02:00</time>
      </trkpt>
    </trkseg>
  </trk>
</gpx>